sensor_id;sensor_type;location;lat;lon;timestamp;temperature;humidity
51739;DHT22;37815;52.692;6.226;2023-02-28T00:03:27;7.40;99.40
51739;DHT22;37815;52.692;6.226;2023-02-28T00:08:28;7.40;99.40
51739;DHT22;37815;52.692;6.226;2023-02-28T00:13:28;7.40;99.40
51739;DHT22;37815;52.692;6.226;2023-02-28T00:18:29;7.40;99.40
51739;DHT22;37815;52.692;6.226;2023-02-28T00:23:30;7.40;99.40
51739;DHT22;37815;52.692;6.226;2023-02-28T00:28:31;7.40;99.40
51739;DHT22;37815;52.692;6.226;2023-02-28T00:33:31;7.40;99.40
51739;DHT22;37815;52.692;6.226;2023-02-28T00:38:32;7.30;99.40
51739;DHT22;37815;52.692;6.226;2023-02-28T00:43:34;7.40;99.40
51739;DHT22;37815;52.692;6.226;2023-02-28T00:48:35;7.30;99.40
51739;DHT22;37815;52.692;6.226;2023-02-28T00:53:36;7.30;99.40
51739;DHT22;37815;52.692;6.226;2023-02-28T00:58:37;7.30;99.40
51739;DHT22;37815;52.692;6.226;2023-02-28T01:03:37;7.30;99.40
51739;DHT22;37815;52.692;6.226;2023-02-28T01:08:38;7.30;99.40
51739;DHT22;37815;52.692;6.226;2023-02-28T01:13:39;7.30;99.40
51739;DHT22;37815;52.692;6.226;2023-02-28T01:18:40;7.30;99.40
51739;DHT22;37815;52.692;6.226;2023-02-28T01:23:41;7.30;99.40
51739;DHT22;37815;52.692;6.226;2023-02-28T01:28:42;7.30;99.40
51739;DHT22;37815;52.692;6.226;2023-02-28T01:33:42;7.30;99.70
51739;DHT22;37815;52.692;6.226;2023-02-28T01:38:44;7.30;99.40
51739;DHT22;37815;52.692;6.226;2023-02-28T01:48:51;7.30;99.40
51739;DHT22;37815;52.692;6.226;2023-02-28T01:53:56;7.30;99.40
51739;DHT22;37815;52.692;6.226;2023-02-28T01:58:58;7.30;99.40
51739;DHT22;37815;52.692;6.226;2023-02-28T02:04:01;7.30;99.40
51739;DHT22;37815;52.692;6.226;2023-02-28T02:09:02;7.30;99.40
51739;DHT22;37815;52.692;6.226;2023-02-28T02:14:26;7.30;99.40
51739;DHT22;37815;52.692;6.226;2023-02-28T02:25:11;7.30;99.40
51739;DHT22;37815;52.692;6.226;2023-02-28T02:35:42;7.30;99.50
51739;DHT22;37815;52.692;6.226;2023-02-28T02:40:56;7.30;99.50
51739;DHT22;37815;52.692;6.226;2023-02-28T02:46:14;7.30;99.50
51739;DHT22;37815;52.692;6.226;2023-02-28T02:51:18;7.30;99.50
51739;DHT22;37815;52.692;6.226;2023-02-28T02:56:24;7.30;99.50
51739;DHT22;37815;52.692;6.226;2023-02-28T03:01:27;7.30;99.50
51739;DHT22;37815;52.692;6.226;2023-02-28T03:06:29;7.30;99.50
51739;DHT22;37815;52.692;6.226;2023-02-28T03:11:30;7.30;99.50
51739;DHT22;37815;52.692;6.226;2023-02-28T03:27:07;7.30;99.50
51739;DHT22;37815;52.692;6.226;2023-02-28T03:32:40;7.30;99.50
51739;DHT22;37815;52.692;6.226;2023-02-28T03:37:44;7.30;99.50
51739;DHT22;37815;52.692;6.226;2023-02-28T03:42:48;7.30;99.50
51739;DHT22;37815;52.692;6.226;2023-02-28T03:47:53;7.30;99.50
51739;DHT22;37815;52.692;6.226;2023-02-28T04:03:51;7.30;99.50
51739;DHT22;37815;52.692;6.226;2023-02-28T04:08:56;7.30;99.50
51739;DHT22;37815;52.692;6.226;2023-02-28T04:13:56;7.30;99.60
51739;DHT22;37815;52.692;6.226;2023-02-28T04:18:57;7.20;99.50
51739;DHT22;37815;52.692;6.226;2023-02-28T04:24:05;7.30;99.60
51739;DHT22;37815;52.692;6.226;2023-02-28T04:29:06;7.20;99.50
51739;DHT22;37815;52.692;6.226;2023-02-28T04:34:07;7.20;99.60
51739;DHT22;37815;52.692;6.226;2023-02-28T04:39:08;7.20;99.60
51739;DHT22;37815;52.692;6.226;2023-02-28T04:44:10;7.20;99.60
51739;DHT22;37815;52.692;6.226;2023-02-28T04:49:12;7.20;99.60
51739;DHT22;37815;52.692;6.226;2023-02-28T04:54:13;7.20;99.60
51739;DHT22;37815;52.692;6.226;2023-02-28T04:59:13;7.20;99.60
51739;DHT22;37815;52.692;6.226;2023-02-28T05:04:14;7.20;99.60
51739;DHT22;37815;52.692;6.226;2023-02-28T05:09:15;7.20;99.80
51739;DHT22;37815;52.692;6.226;2023-02-28T05:14:15;7.20;99.60
51739;DHT22;37815;52.692;6.226;2023-02-28T05:19:16;7.20;99.60
51739;DHT22;37815;52.692;6.226;2023-02-28T05:24:17;7.20;99.60
51739;DHT22;37815;52.692;6.226;2023-02-28T05:29:22;7.20;99.60
51739;DHT22;37815;52.692;6.226;2023-02-28T05:34:23;7.20;99.60
51739;DHT22;37815;52.692;6.226;2023-02-28T05:39:29;7.20;99.60
51739;DHT22;37815;52.692;6.226;2023-02-28T05:44:30;7.20;99.60
51739;DHT22;37815;52.692;6.226;2023-02-28T05:49:30;7.20;99.60
51739;DHT22;37815;52.692;6.226;2023-02-28T05:54:31;7.20;99.60
51739;DHT22;37815;52.692;6.226;2023-02-28T05:59:32;7.20;99.60
51739;DHT22;37815;52.692;6.226;2023-02-28T06:04:32;7.20;99.60
51739;DHT22;37815;52.692;6.226;2023-02-28T06:09:33;7.10;99.60
51739;DHT22;37815;52.692;6.226;2023-02-28T06:14:34;7.20;99.60
51739;DHT22;37815;52.692;6.226;2023-02-28T06:19:37;7.20;99.60
51739;DHT22;37815;52.692;6.226;2023-02-28T06:24:39;7.10;99.60
51739;DHT22;37815;52.692;6.226;2023-02-28T06:29:39;7.10;99.60
51739;DHT22;37815;52.692;6.226;2023-02-28T06:34:40;7.10;99.60
51739;DHT22;37815;52.692;6.226;2023-02-28T06:39:40;7.10;99.60
51739;DHT22;37815;52.692;6.226;2023-02-28T06:44:41;7.10;99.60
51739;DHT22;37815;52.692;6.226;2023-02-28T06:49:43;7.10;99.60
51739;DHT22;37815;52.692;6.226;2023-02-28T06:54:45;7.10;99.60
51739;DHT22;37815;52.692;6.226;2023-02-28T06:59:46;7.10;99.60
51739;DHT22;37815;52.692;6.226;2023-02-28T07:04:47;7.10;99.60
51739;DHT22;37815;52.692;6.226;2023-02-28T07:09:47;7.10;99.60
51739;DHT22;37815;52.692;6.226;2023-02-28T07:14:48;7.10;99.60
51739;DHT22;37815;52.692;6.226;2023-02-28T07:19:49;7.10;99.60
51739;DHT22;37815;52.692;6.226;2023-02-28T07:24:50;7.10;99.60
51739;DHT22;37815;52.692;6.226;2023-02-28T07:29:51;7.10;99.60
51739;DHT22;37815;52.692;6.226;2023-02-28T07:34:52;7.10;99.60
51739;DHT22;37815;52.692;6.226;2023-02-28T07:39:52;7.20;99.60
51739;DHT22;37815;52.692;6.226;2023-02-28T07:44:53;7.20;99.50
51739;DHT22;37815;52.692;6.226;2023-02-28T07:49:54;7.10;99.50
51739;DHT22;37815;52.692;6.226;2023-02-28T07:54:54;7.10;99.50
51739;DHT22;37815;52.692;6.226;2023-02-28T07:59:55;7.10;99.50
51739;DHT22;37815;52.692;6.226;2023-02-28T08:04:55;7.10;99.60
51739;DHT22;37815;52.692;6.226;2023-02-28T08:09:56;7.20;99.60
51739;DHT22;37815;52.692;6.226;2023-02-28T08:14:57;7.10;99.50
51739;DHT22;37815;52.692;6.226;2023-02-28T08:19:57;7.10;99.50
51739;DHT22;37815;52.692;6.226;2023-02-28T08:24:58;7.20;99.50
51739;DHT22;37815;52.692;6.226;2023-02-28T08:29:59;7.20;99.50
51739;DHT22;37815;52.692;6.226;2023-02-28T08:34:59;7.20;99.50
51739;DHT22;37815;52.692;6.226;2023-02-28T08:40:00;7.20;99.40
51739;DHT22;37815;52.692;6.226;2023-02-28T08:45:00;7.30;99.40
51739;DHT22;37815;52.692;6.226;2023-02-28T08:50:01;7.40;99.30
51739;DHT22;37815;52.692;6.226;2023-02-28T08:55:02;7.50;99.20
51739;DHT22;37815;52.692;6.226;2023-02-28T09:00:04;7.60;99.10
51739;DHT22;37815;52.692;6.226;2023-02-28T09:05:05;7.70;99.10
51739;DHT22;37815;52.692;6.226;2023-02-28T09:10:05;7.70;99.10
51739;DHT22;37815;52.692;6.226;2023-02-28T09:15:07;7.70;99.10
51739;DHT22;37815;52.692;6.226;2023-02-28T09:20:08;7.70;99.10
51739;DHT22;37815;52.692;6.226;2023-02-28T09:25:09;7.70;99.10
51739;DHT22;37815;52.692;6.226;2023-02-28T09:30:10;7.70;99.10
51739;DHT22;37815;52.692;6.226;2023-02-28T09:35:11;7.70;99.20
51739;DHT22;37815;52.692;6.226;2023-02-28T09:40:15;7.70;99.20
51739;DHT22;37815;52.692;6.226;2023-02-28T09:50:33;7.70;99.10
51739;DHT22;37815;52.692;6.226;2023-02-28T09:55:58;7.70;99.00
51739;DHT22;37815;52.692;6.226;2023-02-28T10:01:06;7.80;98.90
51739;DHT22;37815;52.692;6.226;2023-02-28T10:06:20;7.80;98.90
51739;DHT22;37815;52.692;6.226;2023-02-28T10:11:21;7.80;98.80
51739;DHT22;37815;52.692;6.226;2023-02-28T10:16:48;7.80;98.80
51739;DHT22;37815;52.692;6.226;2023-02-28T10:21:56;7.90;98.80
51739;DHT22;37815;52.692;6.226;2023-02-28T10:27:24;8.00;98.80
51739;DHT22;37815;52.692;6.226;2023-02-28T10:32:33;8.00;98.60
51739;DHT22;37815;52.692;6.226;2023-02-28T10:37:37;8.10;98.60
51739;DHT22;37815;52.692;6.226;2023-02-28T10:42:39;8.20;98.50
51739;DHT22;37815;52.692;6.226;2023-02-28T10:48:02;8.30;98.50
51739;DHT22;37815;52.692;6.226;2023-02-28T10:58:30;8.40;98.30
51739;DHT22;37815;52.692;6.226;2023-02-28T11:03:35;8.50;98.30
51739;DHT22;37815;52.692;6.226;2023-02-28T11:08:44;8.60;98.30
51739;DHT22;37815;52.692;6.226;2023-02-28T11:13:47;8.60;98.20
51739;DHT22;37815;52.692;6.226;2023-02-28T11:18:53;8.70;98.20
51739;DHT22;37815;52.692;6.226;2023-02-28T11:24:13;8.70;98.20
51739;DHT22;37815;52.692;6.226;2023-02-28T11:34:27;8.80;98.00
51739;DHT22;37815;52.692;6.226;2023-02-28T11:39:28;8.90;98.10
51739;DHT22;37815;52.692;6.226;2023-02-28T11:44:54;8.90;98.10
51739;DHT22;37815;52.692;6.226;2023-02-28T11:55:42;9.00;98.00
51739;DHT22;37815;52.692;6.226;2023-02-28T12:06:51;9.10;97.90
51739;DHT22;37815;52.692;6.226;2023-02-28T12:11:56;9.10;97.80
51739;DHT22;37815;52.692;6.226;2023-02-28T12:22:26;9.20;97.90
51739;DHT22;37815;52.692;6.226;2023-02-28T12:27:30;9.20;97.90
51739;DHT22;37815;52.692;6.226;2023-02-28T12:32:33;9.20;97.90
51739;DHT22;37815;52.692;6.226;2023-02-28T12:37:46;9.30;98.00
51739;DHT22;37815;52.692;6.226;2023-02-28T12:42:52;9.30;97.90
51739;DHT22;37815;52.692;6.226;2023-02-28T12:48:07;9.30;97.90
51739;DHT22;37815;52.692;6.226;2023-02-28T12:53:17;9.30;97.90
51739;DHT22;37815;52.692;6.226;2023-02-28T12:58:28;9.20;97.90
51739;DHT22;37815;52.692;6.226;2023-02-28T13:14:05;9.20;98.00
51739;DHT22;37815;52.692;6.226;2023-02-28T13:19:11;9.20;98.00
51739;DHT22;37815;52.692;6.226;2023-02-28T13:29:40;9.20;98.00
51739;DHT22;37815;52.692;6.226;2023-02-28T13:55:46;9.20;98.20
51739;DHT22;37815;52.692;6.226;2023-02-28T14:06:25;9.40;97.90
51739;DHT22;37815;52.692;6.226;2023-02-28T14:11:30;9.40;98.10
51739;DHT22;37815;52.692;6.226;2023-02-28T14:16:38;9.50;96.90
51739;DHT22;37815;52.692;6.226;2023-02-28T14:32:15;9.20;94.20
51739;DHT22;37815;52.692;6.226;2023-02-28T14:37:30;8.80;92.70
51739;DHT22;37815;52.692;6.226;2023-02-28T14:42:34;8.70;93.40
51739;DHT22;37815;52.692;6.226;2023-02-28T14:47:36;8.60;93.40
51739;DHT22;37815;52.692;6.226;2023-02-28T14:52:37;8.60;92.80
51739;DHT22;37815;52.692;6.226;2023-02-28T14:57:50;8.50;91.90
51739;DHT22;37815;52.692;6.226;2023-02-28T15:02:52;8.30;91.00
51739;DHT22;37815;52.692;6.226;2023-02-28T15:08:14;8.50;91.30
51739;DHT22;37815;52.692;6.226;2023-02-28T15:13:17;8.40;81.90
51739;DHT22;37815;52.692;6.226;2023-02-28T15:18:36;8.30;89.80
51739;DHT22;37815;52.692;6.226;2023-02-28T15:23:44;8.20;86.70
51739;DHT22;37815;52.692;6.226;2023-02-28T15:28:45;8.10;88.60
51739;DHT22;37815;52.692;6.226;2023-02-28T15:33:57;7.90;87.80
51739;DHT22;37815;52.692;6.226;2023-02-28T15:38:58;7.70;87.10
51739;DHT22;37815;52.692;6.226;2023-02-28T15:44:37;7.60;88.70
51739;DHT22;37815;52.692;6.226;2023-02-28T15:49:44;7.80;88.10
51739;DHT22;37815;52.692;6.226;2023-02-28T15:54:46;8.10;90.70
51739;DHT22;37815;52.692;6.226;2023-02-28T15:59:54;8.30;91.20
51739;DHT22;37815;52.692;6.226;2023-02-28T16:05:18;8.50;91.60
51739;DHT22;37815;52.692;6.226;2023-02-28T16:10:21;8.60;92.10
51739;DHT22;37815;52.692;6.226;2023-02-28T16:15:28;8.80;92.40
51739;DHT22;37815;52.692;6.226;2023-02-28T16:20:30;8.80;92.70
51739;DHT22;37815;52.692;6.226;2023-02-28T16:25:36;8.90;92.90
51739;DHT22;37815;52.692;6.226;2023-02-28T16:30:37;8.90;93.20
51739;DHT22;37815;52.692;6.226;2023-02-28T16:35:38;9.00;93.50
51739;DHT22;37815;52.692;6.226;2023-02-28T16:40:38;9.00;93.70
51739;DHT22;37815;52.692;6.226;2023-02-28T16:45:39;9.10;94.00
51739;DHT22;37815;52.692;6.226;2023-02-28T16:50:40;9.10;94.20
51739;DHT22;37815;52.692;6.226;2023-02-28T16:55:42;9.10;94.40
51739;DHT22;37815;52.692;6.226;2023-02-28T17:00:43;9.10;94.60
51739;DHT22;37815;52.692;6.226;2023-02-28T17:05:44;9.10;94.80
51739;DHT22;37815;52.692;6.226;2023-02-28T17:10:45;9.10;95.00
51739;DHT22;37815;52.692;6.226;2023-02-28T17:15:46;9.10;95.00
51739;DHT22;37815;52.692;6.226;2023-02-28T17:20:47;9.10;95.10
51739;DHT22;37815;52.692;6.226;2023-02-28T17:25:48;9.10;95.30
51739;DHT22;37815;52.692;6.226;2023-02-28T17:30:53;9.10;95.30
51739;DHT22;37815;52.692;6.226;2023-02-28T17:35:54;9.10;95.40
51739;DHT22;37815;52.692;6.226;2023-02-28T17:40:54;9.10;95.50
51739;DHT22;37815;52.692;6.226;2023-02-28T17:45:57;9.10;95.50
51739;DHT22;37815;52.692;6.226;2023-02-28T17:50:58;9.20;95.50
51739;DHT22;37815;52.692;6.226;2023-02-28T17:55:59;8.80;95.30
51739;DHT22;37815;52.692;6.226;2023-02-28T18:00:59;8.80;95.30
51739;DHT22;37815;52.692;6.226;2023-02-28T18:06:00;8.70;95.60
51739;DHT22;37815;52.692;6.226;2023-02-28T18:11:02;8.70;95.40
51739;DHT22;37815;52.692;6.226;2023-02-28T18:16:02;8.70;95.40
51739;DHT22;37815;52.692;6.226;2023-02-28T18:21:08;8.80;95.50
51739;DHT22;37815;52.692;6.226;2023-02-28T18:26:08;8.70;95.50
51739;DHT22;37815;52.692;6.226;2023-02-28T18:31:15;8.70;95.60
51739;DHT22;37815;52.692;6.226;2023-02-28T18:36:16;8.70;95.70
51739;DHT22;37815;52.692;6.226;2023-02-28T18:41:19;8.80;95.80
51739;DHT22;37815;52.692;6.226;2023-02-28T18:46:23;8.80;95.90
51739;DHT22;37815;52.692;6.226;2023-02-28T18:51:25;8.80;96.00
51739;DHT22;37815;52.692;6.226;2023-02-28T18:56:26;8.70;96.10
51739;DHT22;37815;52.692;6.226;2023-02-28T19:01:28;8.70;96.10
51739;DHT22;37815;52.692;6.226;2023-02-28T19:06:33;8.70;96.20
51739;DHT22;37815;52.692;6.226;2023-02-28T19:11:34;8.60;96.30
51739;DHT22;37815;52.692;6.226;2023-02-28T19:16:35;8.60;96.30
51739;DHT22;37815;52.692;6.226;2023-02-28T19:21:36;8.60;96.40
51739;DHT22;37815;52.692;6.226;2023-02-28T19:26:36;8.60;96.40
51739;DHT22;37815;52.692;6.226;2023-02-28T19:31:37;8.50;96.40
51739;DHT22;37815;52.692;6.226;2023-02-28T19:36:37;8.50;96.50
51739;DHT22;37815;52.692;6.226;2023-02-28T19:41:38;8.50;96.50
51739;DHT22;37815;52.692;6.226;2023-02-28T19:46:39;8.40;96.50
51739;DHT22;37815;52.692;6.226;2023-02-28T19:51:39;8.40;96.50
51739;DHT22;37815;52.692;6.226;2023-02-28T19:56:40;8.40;96.50
51739;DHT22;37815;52.692;6.226;2023-02-28T20:01:41;8.30;96.50
51739;DHT22;37815;52.692;6.226;2023-02-28T20:06:42;8.30;96.50
51739;DHT22;37815;52.692;6.226;2023-02-28T20:11:43;8.30;96.50
51739;DHT22;37815;52.692;6.226;2023-02-28T20:16:44;9.50;96.80
51739;DHT22;37815;52.692;6.226;2023-02-28T20:21:45;8.30;96.60
51739;DHT22;37815;52.692;6.226;2023-02-28T20:26:46;8.20;96.60
51739;DHT22;37815;52.692;6.226;2023-02-28T20:31:46;8.20;96.60
51739;DHT22;37815;52.692;6.226;2023-02-28T20:36:47;8.20;96.60
51739;DHT22;37815;52.692;6.226;2023-02-28T20:41:48;8.20;96.60
51739;DHT22;37815;52.692;6.226;2023-02-28T20:46:48;8.10;96.60
51739;DHT22;37815;52.692;6.226;2023-02-28T20:51:49;8.10;96.60
51739;DHT22;37815;52.692;6.226;2023-02-28T20:56:50;8.10;96.60
51739;DHT22;37815;52.692;6.226;2023-02-28T21:01:50;8.00;96.60
51739;DHT22;37815;52.692;6.226;2023-02-28T21:06:51;8.00;96.60
51739;DHT22;37815;52.692;6.226;2023-02-28T21:11:53;8.00;96.60
51739;DHT22;37815;52.692;6.226;2023-02-28T21:16:53;7.90;96.60
51739;DHT22;37815;52.692;6.226;2023-02-28T21:21:54;7.90;96.70
51739;DHT22;37815;52.692;6.226;2023-02-28T21:26:55;7.90;96.70
51739;DHT22;37815;52.692;6.226;2023-02-28T21:31:56;7.90;96.70
51739;DHT22;37815;52.692;6.226;2023-02-28T21:36:58;7.80;96.70
51739;DHT22;37815;52.692;6.226;2023-02-28T21:41:59;7.80;96.70
51739;DHT22;37815;52.692;6.226;2023-02-28T21:47:02;7.80;97.00
51739;DHT22;37815;52.692;6.226;2023-02-28T21:52:04;7.70;96.70
51739;DHT22;37815;52.692;6.226;2023-02-28T21:57:04;7.70;96.70
51739;DHT22;37815;52.692;6.226;2023-02-28T22:02:05;7.70;96.80
51739;DHT22;37815;52.692;6.226;2023-02-28T22:07:05;7.60;96.80
51739;DHT22;37815;52.692;6.226;2023-02-28T22:12:06;7.60;96.80
51739;DHT22;37815;52.692;6.226;2023-02-28T22:17:07;7.60;96.80
51739;DHT22;37815;52.692;6.226;2023-02-28T22:22:08;7.50;96.80
51739;DHT22;37815;52.692;6.226;2023-02-28T22:27:09;7.50;96.80
51739;DHT22;37815;52.692;6.226;2023-02-28T22:32:09;7.50;96.80
51739;DHT22;37815;52.692;6.226;2023-02-28T22:37:10;7.50;96.90
51739;DHT22;37815;52.692;6.226;2023-02-28T22:42:11;7.40;96.90
51739;DHT22;37815;52.692;6.226;2023-02-28T22:47:11;7.40;96.90
51739;DHT22;37815;52.692;6.226;2023-02-28T22:52:12;7.40;96.90
51739;DHT22;37815;52.692;6.226;2023-02-28T22:57:13;7.40;96.90
51739;DHT22;37815;52.692;6.226;2023-02-28T23:02:13;7.30;96.90
51739;DHT22;37815;52.692;6.226;2023-02-28T23:07:14;7.30;96.90
51739;DHT22;37815;52.692;6.226;2023-02-28T23:12:14;7.30;97.00
51739;DHT22;37815;52.692;6.226;2023-02-28T23:17:15;7.30;97.00
51739;DHT22;37815;52.692;6.226;2023-02-28T23:22:16;7.20;97.00
51739;DHT22;37815;52.692;6.226;2023-02-28T23:27:17;7.20;97.00
51739;DHT22;37815;52.692;6.226;2023-02-28T23:32:18;7.20;97.00
51739;DHT22;37815;52.692;6.226;2023-02-28T23:37:18;7.20;97.00
51739;DHT22;37815;52.692;6.226;2023-02-28T23:42:19;7.10;97.00
51739;DHT22;37815;52.692;6.226;2023-02-28T23:47:21;7.10;97.00
51739;DHT22;37815;52.692;6.226;2023-02-28T23:52:22;7.10;97.00
51739;DHT22;37815;52.692;6.226;2023-02-28T23:57:22;7.10;97.00
